createdAt,value
2019-04-11T00:01:14.467Z,11.43
2019-04-11T00:04:18.787Z,8.83
2019-04-11T00:07:22.622Z,9.13
2019-04-11T00:10:27.263Z,11.53
2019-04-11T00:13:34.390Z,9.70
2019-04-11T00:16:37.643Z,9.13
2019-04-11T00:19:41.903Z,13.53
2019-04-11T00:22:46.117Z,8.57
2019-04-11T00:25:50.089Z,9.87
2019-04-11T00:28:54.260Z,8.37
2019-04-11T00:31:58.714Z,8.47
2019-04-11T00:35:03.572Z,9.93
2019-04-11T00:38:08.130Z,7.57
2019-04-11T00:41:12.036Z,9.57
2019-04-11T00:44:16.869Z,9.77
2019-04-11T00:47:20.800Z,10.20
2019-04-11T00:50:25.325Z,8.53
2019-04-11T00:53:29.880Z,10.13
2019-04-11T00:56:34.587Z,8.10
2019-04-11T00:59:39.079Z,9.80
2019-04-11T01:02:43.363Z,10.07
2019-04-11T01:05:48.440Z,8.83
2019-04-11T01:08:53.725Z,8.83
2019-04-11T01:11:58.467Z,12.70
2019-04-11T01:15:03.164Z,8.33
2019-04-11T01:18:07.029Z,12.17
2019-04-11T01:21:12.311Z,12.03
2019-04-11T01:24:17.675Z,12.63
2019-04-11T01:27:23.621Z,9.67
2019-04-11T01:30:35.251Z,7.50
2019-04-11T01:33:40.164Z,8.70
2019-04-11T01:36:45.055Z,8.43
2019-04-11T01:39:57.817Z,7.63
2019-04-11T01:43:01.984Z,11.13
2019-04-11T01:46:06.261Z,9.87
2019-04-11T01:49:17.237Z,8.40
2019-04-11T01:52:22.424Z,9.67
2019-04-11T01:55:28.193Z,11.53
2019-04-11T01:58:32.997Z,10.23
2019-04-11T02:01:51.163Z,12.03
2019-04-11T02:05:02.852Z,12.30
2019-04-11T02:08:07.234Z,11.43
2019-04-11T02:11:12.919Z,8.70
2019-04-11T02:14:19.487Z,9.93
2019-04-11T02:17:24.375Z,11.13
2019-04-11T02:20:29.196Z,11.27
2019-04-11T02:24:07.879Z,9.97
2019-04-11T02:27:30.851Z,11.63
2019-04-11T02:30:39.187Z,11.30
2019-04-11T02:33:43.960Z,12.57
2019-04-11T02:36:49.055Z,9.23
2019-04-11T02:39:55.318Z,12.83
2019-04-11T02:43:00.255Z,12.13
2019-04-11T02:46:17.521Z,10.63
2019-04-11T02:49:11.108Z,13.60
2019-04-11T02:52:17.079Z,11.50
2019-04-11T02:55:22.159Z,11.10
2019-04-11T02:58:27.813Z,15.37
2019-04-11T03:01:34.063Z,12.43
2019-04-11T03:04:39.325Z,13.23
2019-04-11T03:07:45.843Z,10.67
2019-04-11T03:10:51.441Z,11.97
2019-04-11T03:13:58.355Z,11.13
2019-04-11T03:17:14.088Z,13.03
2019-04-11T03:20:21.056Z,13.50
2019-04-11T03:23:18.549Z,12.77
2019-04-11T03:26:21.526Z,15.77
2019-04-11T03:29:26.733Z,12.80
2019-04-11T03:33:17.370Z,11.73
2019-04-11T03:39:05.446Z,11.50
2019-04-11T03:42:04.071Z,11.97
2019-04-11T03:45:20.430Z,13.67
2019-04-11T03:48:18.021Z,12.17
2019-04-11T03:51:10.941Z,12.13
2019-04-11T03:54:15.787Z,11.87
2019-04-11T03:57:21.561Z,12.07
2019-04-11T04:00:30.372Z,15.63
2019-04-11T04:03:31.906Z,11.10
2019-04-11T04:06:37.406Z,13.80
2019-04-11T04:09:45.916Z,14.00
2019-04-11T04:12:51.751Z,12.47
2019-04-11T04:16:12.074Z,12.70
2019-04-11T04:19:18.413Z,12.00
2019-04-11T04:22:29.405Z,14.23
2019-04-11T04:25:34.699Z,14.47
2019-04-11T04:28:40.850Z,14.67
2019-04-11T04:31:46.622Z,16.53
2019-04-11T04:34:52.842Z,14.77
2019-04-11T04:37:57.048Z,15.50
2019-04-11T04:41:16.321Z,14.50
2019-04-11T04:44:10.502Z,14.23
2019-04-11T04:47:23.042Z,13.80
2019-04-11T04:50:22.334Z,12.60
2019-04-11T04:53:28.248Z,13.63
2019-04-11T04:56:33.100Z,13.67
2019-04-11T04:59:39.985Z,15.33
2019-04-11T05:02:44.635Z,11.60
2019-04-11T05:05:48.810Z,14.87
2019-04-11T05:08:53.014Z,16.03
2019-04-11T05:11:56.800Z,16.67
2019-04-11T05:15:01.595Z,14.70
2019-04-11T05:18:06.289Z,15.17
2019-04-11T05:21:10.763Z,16.43
2019-04-11T05:24:14.761Z,12.77
2019-04-11T05:27:18.642Z,13.77
2019-04-11T05:30:23.253Z,17.77
2019-04-11T05:33:27.465Z,13.73
2019-04-11T05:36:32.343Z,15.20
2019-04-11T05:39:36.618Z,14.57
2019-04-11T05:42:41.710Z,15.67
2019-04-11T05:45:45.825Z,13.90
2019-04-11T05:49:05.409Z,15.57
2019-04-11T05:52:10.807Z,13.87
2019-04-11T05:55:15.584Z,17.70
2019-04-11T05:58:20.742Z,16.00
2019-04-11T06:01:32.192Z,15.10
2019-04-11T06:04:42.402Z,14.90
2019-04-11T06:07:55.586Z,13.40
2019-04-11T06:11:06.515Z,10.17
2019-04-11T06:14:17.233Z,9.10
2019-04-11T06:17:23.913Z,10.63
2019-04-11T06:20:43.220Z,10.07
2019-04-11T06:24:12.583Z,11.07
2019-04-11T06:27:20.044Z,10.40
2019-04-11T06:30:42.398Z,9.73
2019-04-11T06:33:51.051Z,12.60
2019-04-11T06:37:14.229Z,10.43
2019-04-11T06:40:38.403Z,9.47
2019-04-11T06:43:50.556Z,11.00
2019-04-11T06:47:05.449Z,10.63
2019-04-11T06:50:15.236Z,8.90
2019-04-11T06:53:23.817Z,10.03
2019-04-11T06:56:36.995Z,13.07
2019-04-11T06:59:43.416Z,10.97
2019-04-11T07:02:55.183Z,9.63
2019-04-11T07:06:01.331Z,10.30
2019-04-11T07:09:35.465Z,9.20
2019-04-11T07:12:58.951Z,9.90
2019-04-11T07:16:03.279Z,8.73
2019-04-11T07:19:32.609Z,11.97
2019-04-11T07:22:55.314Z,12.77
2019-04-11T07:26:22.978Z,12.07
2019-04-11T07:29:55.089Z,10.87
2019-04-11T07:33:12.894Z,11.20
2019-04-11T07:36:36.032Z,13.17
2019-04-11T07:39:58.589Z,9.47
2019-04-11T07:43:11.529Z,11.83
2019-04-11T07:46:34.999Z,11.00
2019-04-11T07:49:40.982Z,10.57
2019-04-11T07:52:49.440Z,15.27
2019-04-11T07:55:55.456Z,13.90
2019-04-11T07:59:02.933Z,12.80
2019-04-11T08:02:33.252Z,11.43
2019-04-11T08:06:05.348Z,10.73
2019-04-11T08:09:27.425Z,13.63
2019-04-11T08:12:31.983Z,11.87
2019-04-11T08:15:54.395Z,12.73
2019-04-11T08:19:21.123Z,15.83
2019-04-11T08:22:53.649Z,10.03
2019-04-11T08:26:18.119Z,11.00
2019-04-11T08:29:22.339Z,11.87
2019-04-11T08:32:48.296Z,12.53
2019-04-11T08:36:24.039Z,11.57
2019-04-11T08:39:33.351Z,11.77
2019-04-11T08:43:03.118Z,12.83
2019-04-11T08:46:13.337Z,12.67
2019-04-11T08:49:33.004Z,12.70
2019-04-11T08:52:44.432Z,11.80
2019-04-11T08:55:58.850Z,11.07
2019-04-11T08:59:41.991Z,10.63
2019-04-11T09:02:53.388Z,10.87
2019-04-11T09:06:25.790Z,12.43
2019-04-11T09:09:57.753Z,11.90
2019-04-11T09:13:31.315Z,11.37
2019-04-11T09:16:48.305Z,13.40
2019-04-11T09:20:11.529Z,14.47
2019-04-11T09:23:18.026Z,10.97
2019-04-11T09:26:47.894Z,10.50
2019-04-11T09:29:56.614Z,11.43
2019-04-11T09:33:39.428Z,10.73
2019-04-11T09:36:58.129Z,13.90
2019-04-11T09:40:24.223Z,11.10
2019-04-11T09:43:30.027Z,9.90
2019-04-11T09:46:59.706Z,9.93
2019-04-11T09:50:04.575Z,10.70
2019-04-11T09:53:09.963Z,10.77
2019-04-11T09:56:33.302Z,13.00
2019-04-11T09:59:50.180Z,10.23
2019-04-11T10:03:10.800Z,12.00
2019-04-11T10:06:36.936Z,10.70
2019-04-11T10:10:02.890Z,10.73
2019-04-11T10:13:24.991Z,9.33
2019-04-11T10:16:48.665Z,10.43
2019-04-11T10:20:06.492Z,10.47
2019-04-11T10:23:20.819Z,11.17
2019-04-11T10:26:29.956Z,9.90
2019-04-11T10:30:08.640Z,9.40
2019-04-11T10:33:31.666Z,11.87
2019-04-11T10:36:43.229Z,10.57
2019-04-11T10:40:04.510Z,11.33
2019-04-11T10:43:09.809Z,11.73
2019-04-11T10:46:33.286Z,8.80
2019-04-11T10:50:03.429Z,11.40
2019-04-11T10:53:08.855Z,9.13
2019-04-11T10:56:31.202Z,9.43
2019-04-11T10:59:35.582Z,11.53
2019-04-11T11:03:11.714Z,9.43
2019-04-11T11:06:17.733Z,9.87
2019-04-11T11:09:54.654Z,10.00
2019-04-11T11:13:11.877Z,12.23
2019-04-11T11:16:16.981Z,10.37
2019-04-11T11:19:50.048Z,10.10
2019-04-11T11:23:00.187Z,11.53
2019-04-11T11:26:19.669Z,10.87
2019-04-11T11:29:47.546Z,8.27
2019-04-11T11:32:51.815Z,9.53
2019-04-11T11:36:25.610Z,10.03
2019-04-11T11:39:58.931Z,10.37
2019-04-11T11:43:17.573Z,8.27
2019-04-11T11:46:50.726Z,10.83
2019-04-11T11:50:00.152Z,10.47
2019-04-11T11:53:18.925Z,8.53
2019-04-11T11:56:24.067Z,12.93
2019-04-11T11:59:38.578Z,9.97
2019-04-11T12:02:54.036Z,9.63
2019-04-11T12:06:00.936Z,10.23
2019-04-11T12:09:24.590Z,8.47
2019-04-11T12:12:53.931Z,8.20
2019-04-11T12:16:16.074Z,10.97
2019-04-11T12:19:22.380Z,8.37
2019-04-11T12:22:28.428Z,9.53
2019-04-11T12:25:37.070Z,9.23
2019-04-11T12:28:59.572Z,6.30
2019-04-11T12:32:06.251Z,9.90
2019-04-11T12:35:27.798Z,7.33
2019-04-11T12:38:54.678Z,7.90
2019-04-11T12:42:07.196Z,7.53
2019-04-11T12:45:39.319Z,7.77
2019-04-11T12:48:46.585Z,8.33
2019-04-11T12:52:08.706Z,6.63
2019-04-11T12:55:15.536Z,6.37
2019-04-11T12:58:31.594Z,7.43
2019-04-11T13:02:07.889Z,9.33
2019-04-11T13:05:13.573Z,11.13
2019-04-11T13:08:36.280Z,7.90
2019-04-11T13:11:42.211Z,8.63
2019-04-11T13:14:59.731Z,6.73
2019-04-11T13:18:14.717Z,11.37
2019-04-11T13:21:28.300Z,7.60
2019-04-11T13:25:00.599Z,7.20
2019-04-11T13:28:04.622Z,5.40
2019-04-11T13:31:26.480Z,6.87
2019-04-11T13:34:30.627Z,7.50
2019-04-11T13:37:52.867Z,8.97
2019-04-11T13:41:16.213Z,7.83
2019-04-11T13:44:34.608Z,5.73
2019-04-11T13:48:00.581Z,6.00
2019-04-11T13:51:08.700Z,8.10
2019-04-11T13:54:36.983Z,7.40
2019-04-11T13:57:59.946Z,6.53
2019-04-11T14:01:10.820Z,6.50
2019-04-11T14:04:21.007Z,7.53
2019-04-11T14:07:25.036Z,8.07
2019-04-11T14:10:31.531Z,6.07
2019-04-11T14:13:42.705Z,6.23
2019-04-11T14:16:54.777Z,6.03
2019-04-11T14:20:28.273Z,6.00
2019-04-11T14:23:41.947Z,6.40
2019-04-11T14:26:48.307Z,6.70
2019-04-11T14:30:05.120Z,6.77
2019-04-11T14:33:10.565Z,5.27
2019-04-11T14:36:34.002Z,8.97
2019-04-11T14:39:40.645Z,7.77
2019-04-11T14:43:06.574Z,7.13
2019-04-11T14:46:32.207Z,5.97
2019-04-11T14:49:40.566Z,5.67
2019-04-11T14:52:59.453Z,8.60
2019-04-11T14:56:06.335Z,7.50
2019-04-11T14:59:44.642Z,6.37
2019-04-11T15:03:10.596Z,9.17
2019-04-11T15:06:21.973Z,6.53
2019-04-11T15:09:46.439Z,8.60
2019-04-11T15:12:49.422Z,9.27
2019-04-11T15:16:11.007Z,7.03
2019-04-11T15:19:15.090Z,10.63
2019-04-11T15:22:27.340Z,6.83
2019-04-11T15:26:08.907Z,7.60
2019-04-11T15:29:32.001Z,7.67
2019-04-11T15:32:49.225Z,7.93
2019-04-11T15:35:57.804Z,7.63
2019-04-11T15:39:14.352Z,8.87
2019-04-11T15:42:27.961Z,6.90
2019-04-11T15:45:55.511Z,8.63
2019-04-11T15:49:21.210Z,7.60
2019-04-11T15:52:24.476Z,7.87
2019-04-11T15:55:53.167Z,8.77
2019-04-11T15:59:02.841Z,7.40
2019-04-11T16:02:28.962Z,7.73
2019-04-11T16:05:50.716Z,6.03
2019-04-11T16:08:57.723Z,8.00
2019-04-11T16:12:09.247Z,7.17
2019-04-11T16:15:14.918Z,9.23
2019-04-11T16:18:50.238Z,8.03
2019-04-11T16:22:08.847Z,7.30
2019-04-11T16:25:17.491Z,10.67
2019-04-11T16:28:39.733Z,8.97
2019-04-11T16:31:45.905Z,7.50
2019-04-11T16:34:58.934Z,7.80
2019-04-11T16:38:04.510Z,6.63
2019-04-11T16:41:26.654Z,8.13
2019-04-11T16:44:41.073Z,8.60
2019-04-11T16:48:10.449Z,8.20
2019-04-11T16:51:14.376Z,9.17
2019-04-11T16:54:18.580Z,7.93
2019-04-11T16:57:23.141Z,8.30
2019-04-11T17:00:27.519Z,10.77
2019-04-11T17:03:31.530Z,9.67
2019-04-11T17:06:55.380Z,7.17
2019-04-11T17:09:59.363Z,8.57
2019-04-11T17:13:03.269Z,8.17
2019-04-11T17:16:10.345Z,9.37
2019-04-11T17:19:14.482Z,8.83
2019-04-11T17:22:18.892Z,9.63
2019-04-11T17:25:24.308Z,8.90
2019-04-11T17:28:28.145Z,10.33
2019-04-11T17:31:32.224Z,11.00
2019-04-11T17:34:36.463Z,7.87
2019-04-11T17:37:40.578Z,8.37
2019-04-11T17:40:44.397Z,7.63
2019-04-11T17:43:51.546Z,9.63
2019-04-11T17:46:56.383Z,8.93
2019-04-11T17:49:59.753Z,9.83
2019-04-11T17:53:03.713Z,10.07
2019-04-11T17:56:07.980Z,9.63
2019-04-11T17:59:12.230Z,10.77
2019-04-11T18:02:16.276Z,9.20
2019-04-11T18:05:20.529Z,10.03
2019-04-11T18:08:24.651Z,12.90
2019-04-11T18:11:28.879Z,11.67
2019-04-11T18:14:33.395Z,7.50
2019-04-11T18:17:37.502Z,6.80
2019-04-11T18:20:41.562Z,8.73
2019-04-11T18:23:49.815Z,10.73
2019-04-11T18:26:52.457Z,8.37
2019-04-11T18:29:56.442Z,8.50
2019-04-11T18:33:00.292Z,9.23
2019-04-11T18:36:06.186Z,8.30
2019-04-11T18:39:10.566Z,9.97
2019-04-11T18:42:14.780Z,7.50
2019-04-11T18:45:19.355Z,8.00
2019-04-11T18:48:23.258Z,11.10
2019-04-11T18:51:27.160Z,8.87
2019-04-11T18:54:31.466Z,10.00
2019-04-11T18:57:35.382Z,8.23
2019-04-11T19:00:39.671Z,9.57
2019-04-11T19:03:43.986Z,9.47
2019-04-11T19:06:47.986Z,7.83
2019-04-11T19:09:51.986Z,10.53
2019-04-11T19:12:56.005Z,9.23
2019-04-11T19:16:00.138Z,10.40
2019-04-11T19:19:04.007Z,11.53
2019-04-11T19:22:08.042Z,10.27
2019-04-11T19:25:12.514Z,9.73
2019-04-11T19:28:16.647Z,9.07
2019-04-11T19:31:20.453Z,9.53
2019-04-11T19:34:24.694Z,11.73
2019-04-11T19:37:30.055Z,11.07
2019-04-11T19:40:33.878Z,10.27
2019-04-11T19:43:40.556Z,9.50
2019-04-11T19:46:43.708Z,8.67
2019-04-11T19:49:48.029Z,8.70
2019-04-11T19:52:55.166Z,7.63
2019-04-11T19:56:05.365Z,9.70
2019-04-11T19:59:09.670Z,11.53
2019-04-11T20:02:13.763Z,8.00
2019-04-11T20:05:17.592Z,10.17
2019-04-11T20:08:21.780Z,10.90
2019-04-11T20:11:26.084Z,9.03
2019-04-11T20:14:34.178Z,8.67
2019-04-11T20:17:44.217Z,9.63
2019-04-11T20:20:41.720Z,8.57
2019-04-11T20:23:45.463Z,9.93
2019-04-11T20:26:50.350Z,10.07
2019-04-11T20:29:55.337Z,9.17
2019-04-11T20:33:02.912Z,12.63
2019-04-11T20:36:04.816Z,9.10
2019-04-11T20:39:09.293Z,8.00
2019-04-11T20:42:13.105Z,9.03
2019-04-11T20:45:16.932Z,8.73
2019-04-11T20:48:20.744Z,8.70
2019-04-11T20:51:24.890Z,9.20
2019-04-11T20:54:28.905Z,9.57
2019-04-11T20:57:32.931Z,8.77
2019-04-11T21:00:49.654Z,7.80
2019-04-11T21:03:43.627Z,7.90
2019-04-11T21:06:49.476Z,11.47
2019-04-11T21:09:53.557Z,8.73
2019-04-11T21:12:57.346Z,8.87
2019-04-11T21:16:01.250Z,12.80
2019-04-11T21:19:05.161Z,9.63
2019-04-11T21:22:08.971Z,12.27
2019-04-11T21:25:12.914Z,11.00
2019-04-11T21:28:25.166Z,9.60
2019-04-11T21:31:31.236Z,9.00
2019-04-11T21:34:34.736Z,10.13
2019-04-11T21:37:38.527Z,9.87
2019-04-11T21:40:42.295Z,9.10
2019-04-11T21:43:46.123Z,9.30
2019-04-11T21:46:50.000Z,9.63
2019-04-11T21:49:53.892Z,9.40
2019-04-11T21:52:57.703Z,9.03
2019-04-11T21:56:01.885Z,9.53
2019-04-11T21:59:05.687Z,9.10
2019-04-11T22:02:11.923Z,10.90
2019-04-11T22:05:16.314Z,11.27
2019-04-11T22:08:20.149Z,9.33
2019-04-11T22:11:24.345Z,11.63
2019-04-11T22:14:28.704Z,10.27
2019-04-11T22:17:32.892Z,10.87
2019-04-11T22:20:36.798Z,12.10
2019-04-11T22:23:48.733Z,11.73
2019-04-11T22:26:50.143Z,12.00
2019-04-11T22:29:54.983Z,9.60
2019-04-11T22:33:06.996Z,10.40
2019-04-11T22:36:11.234Z,10.07
2019-04-11T22:39:15.239Z,12.93
2019-04-11T22:42:19.186Z,11.63
2019-04-11T22:45:23.689Z,13.13
2019-04-11T22:48:27.921Z,11.57
2019-04-11T22:51:32.032Z,12.67
2019-04-11T22:54:36.481Z,10.20
2019-04-11T22:57:40.884Z,10.40
2019-04-11T23:00:46.289Z,10.17
2019-04-11T23:03:54.310Z,10.90
2019-04-11T23:06:58.504Z,10.67
2019-04-11T23:10:02.681Z,12.43
2019-04-11T23:13:06.454Z,10.73
2019-04-11T23:16:12.038Z,12.00
2019-04-11T23:19:15.872Z,12.10
2019-04-11T23:22:19.709Z,15.07
2019-04-11T23:25:25.178Z,11.77
2019-04-11T23:28:29.034Z,12.03
2019-04-11T23:31:33.221Z,9.60
2019-04-11T23:34:37.117Z,11.60
2019-04-11T23:37:53.769Z,12.23
2019-04-11T23:40:57.891Z,11.07
2019-04-11T23:44:01.939Z,10.27
2019-04-11T23:47:06.190Z,12.57
2019-04-11T23:50:10.386Z,12.70
2019-04-11T23:53:14.237Z,10.77
2019-04-11T23:56:18.412Z,11.73
2019-04-11T23:59:22.622Z,12.33
